Time;durP1;ratioP1;P1;durP2;ratioP2;P2;SDS_P1;SDS_P2;PMS_P1;PMS_P2;Temp;Humidity;BMP_temperature;BMP_pressure;BME280_temperature;BME280_humidity;BME280_pressure;Samples;Min_cycle;Max_cycle;Signal;HPM_P1;HPM_P2
2023/01/14 00:01:44;;;;;;;;;;;;;;;7.33;84.53;101440.53;5094370;28;19920;-79
2023/01/14 00:04:09;;;;;;;;;;;;;;;7.30;84.86;101442.31;5095280;28;19920;-79
2023/01/14 00:06:37;;;;;;;;;;;;;;;7.30;85.79;101431.03;5094882;28;19920;-79
2023/01/14 00:09:04;;;;;;;;;;;;;;;7.32;86.54;101426.66;5095108;28;19924;-79
2023/01/14 00:11:50;;;;;;;;;;;;;;;7.31;86.06;101422.31;5095669;28;20195;-79
2023/01/14 00:14:22;;;;;;;;;;;;;;;7.33;86.56;101430.09;5095059;28;19924;-79
2023/01/14 00:16:48;;;;;;;;;;;;;;;7.32;86.94;101431.88;5094965;28;20113;-79
2023/01/14 00:19:14;;;;;;;;;;;;;;;7.32;86.50;101431.00;5095799;28;19947;-79
2023/01/14 00:21:43;;;;;;;;;;;;;;;7.32;86.90;101441.44;5095161;28;19912;-79
2023/01/14 00:24:09;;;;;;;;;;;;;;;7.33;87.00;101437.94;5096455;28;19914;-79
2023/01/14 00:26:34;;;;;;;;;;;;;;;7.33;87.18;101431.00;5095240;28;19994;-79
2023/01/14 00:28:59;;;;;;;;;;;;;;;7.34;87.26;101418.81;5097022;28;20264;-79
2023/01/14 00:31:26;;;;;;;;;;;;;;;7.35;88.30;101425.72;5084843;28;19924;-79
2023/01/14 00:33:51;;;;;;;;;;;;;;;7.34;88.41;101432.69;5091046;28;19916;-79
2023/01/14 00:36:18;;;;;;;;;;;;;;;7.34;88.28;101430.09;5097510;28;19916;-79
2023/01/14 00:38:44;;;;;;;;;;;;;;;7.34;88.56;101424.88;5097105;28;19915;-79
2023/01/14 00:41:10;;;;;;;;;;;;;;;7.33;88.42;101433.59;5081537;28;19924;-79
2023/01/14 00:43:36;;;;;;;;;;;;;;;7.29;88.08;101438.00;5076630;28;19920;-79
2023/01/14 00:46:03;;;;;;;;;;;;;;;7.28;88.60;101423.25;5076696;28;19921;-79
2023/01/14 00:48:28;;;;;;;;;;;;;;;7.28;88.57;101419.78;5082676;28;19955;-79
2023/01/14 00:50:53;;;;;;;;;;;;;;;7.25;88.41;101425.88;5093816;28;19916;-79
2023/01/14 00:53:19;;;;;;;;;;;;;;;7.24;88.55;101424.19;5100976;28;20103;-79
2023/01/14 00:55:44;;;;;;;;;;;;;;;7.21;88.39;101424.22;5100624;28;20188;-79
2023/01/14 00:58:09;;;;;;;;;;;;;;;7.19;88.55;101414.75;5101138;28;19912;-79
2023/01/14 01:00:34;;;;;;;;;;;;;;;7.18;88.99;101410.41;5100301;28;19961;-79
2023/01/14 01:03:00;;;;;;;;;;;;;;;7.15;88.66;101408.72;5101017;28;19916;-79
2023/01/14 01:05:25;;;;;;;;;;;;;;;7.15;88.74;101407.84;5100849;28;19989;-79
2023/01/14 01:07:50;;;;;;;;;;;;;;;7.14;89.01;101403.53;5100304;28;19968;-79
2023/01/14 01:10:15;;;;;;;;;;;;;;;7.14;89.26;101404.38;5100890;28;19919;-79
2023/01/14 01:12:41;;;;;;;;;;;;;;;7.11;88.84;101397.50;5100492;28;19987;-79
2023/01/14 01:15:06;;;;;;;;;;;;;;;7.11;89.42;101396.63;5101009;28;19986;-79
2023/01/14 01:17:31;;;;;;;;;;;;;;;7.14;89.68;101398.31;5099104;28;19916;-79
2023/01/14 01:19:57;;;;;;;;;;;;;;;7.17;90.36;101400.84;5100108;28;19919;-79
2023/01/14 01:22:22;;;;;;;;;;;;;;;7.17;90.61;101406.94;5082529;28;19924;-79
2023/01/14 01:24:47;;;;;;;;;;;;;;;7.21;91.36;101399.94;5100090;28;19919;-79
2023/01/14 01:27:12;;;;;;;;;;;;;;;7.23;91.50;101409.44;5100734;28;19946;-79
2023/01/14 01:29:38;;;;;;;;;;;;;;;7.24;91.15;101405.06;5099911;28;20382;-79
2023/01/14 01:32:03;;;;;;;;;;;;;;;7.26;91.62;101412.00;5100363;28;19961;-79
2023/01/14 01:34:28;;;;;;;;;;;;;;;7.28;91.62;101404.16;5100124;28;19916;-79
2023/01/14 01:36:54;;;;;;;;;;;;;;;7.30;92.08;101412.78;5099993;28;19976;-79
2023/01/14 01:39:19;;;;;;;;;;;;;;;7.31;91.87;101414.50;5100473;28;19912;-79
2023/01/14 01:41:44;;;;;;;;;;;;;;;7.33;91.99;101412.75;5099925;28;20216;-79
2023/01/14 01:44:12;;;;;;;;;;;;;;;7.36;92.04;101402.25;5098799;28;20273;-79
2023/01/14 01:46:39;;;;;;;;;;;;;;;7.38;92.10;101397.03;5098120;28;19916;-79
2023/01/14 01:49:07;;;;;;;;;;;;;;;7.38;92.39;101390.06;5100283;28;19922;-79
2023/01/14 01:51:35;;;;;;;;;;;;;;;7.40;92.39;101390.03;5099467;28;19961;-79
2023/01/14 01:54:02;;;;;;;;;;;;;;;7.39;92.24;101383.97;5100098;28;19908;-79
2023/01/14 01:56:28;;;;;;;;;;;;;;;7.40;92.44;101372.63;5099646;28;20242;-79
2023/01/14 01:58:55;;;;;;;;;;;;;;;7.42;92.39;101375.22;5099798;28;19951;-79
2023/01/14 02:01:20;;;;;;;;;;;;;;;7.42;92.28;101365.69;5099485;28;20215;-79
2023/01/14 02:03:47;;;;;;;;;;;;;;;7.42;92.31;101365.69;5099240;28;19920;-79
2023/01/14 02:06:14;;;;;;;;;;;;;;;7.42;92.58;101354.38;5099856;28;19916;-79
2023/01/14 02:08:40;;;;;;;;;;;;;;;7.43;92.59;101345.69;5097852;28;19916;-79
2023/01/14 02:11:12;;;;;;;;;;;;;;;7.43;92.56;101337.84;5099809;28;19908;-79
2023/01/14 02:13:43;;;;;;;;;;;;;;;7.44;92.88;101339.56;5099281;28;19946;-79
2023/01/14 02:16:11;;;;;;;;;;;;;;;7.43;92.66;101330.03;5099382;28;19927;-79
2023/01/14 02:18:50;;;;;;;;;;;;;;;7.43;92.61;101324.81;5098982;28;19951;-79
2023/01/14 02:21:16;;;;;;;;;;;;;;;7.42;92.71;101321.38;5099250;28;19908;-79
2023/01/14 02:24:04;;;;;;;;;;;;;;;7.43;92.73;101330.03;5099128;28;19983;-79
2023/01/14 02:26:48;;;;;;;;;;;;;;;7.42;92.71;101323.09;5070320;28;19908;-79
2023/01/14 02:29:32;;;;;;;;;;;;;;;7.41;92.51;101329.22;5099434;28;20287;-79
2023/01/14 02:32:15;;;;;;;;;;;;;;;7.40;92.70;101325.72;5099307;28;19908;-79
2023/01/14 02:34:58;;;;;;;;;;;;;;;7.38;91.80;101324.06;5098961;28;20115;-79
2023/01/14 02:37:30;;;;;;;;;;;;;;;7.36;91.90;101323.22;5098933;28;19916;-79
2023/01/14 02:40:15;;;;;;;;;;;;;;;7.33;92.00;101321.56;5097489;28;19916;-79
2023/01/14 02:45:48;;;;;;;;;;;;;;;7.34;92.80;101301.56;5098513;28;20262;-79
2023/01/14 02:48:14;;;;;;;;;;;;;;;7.33;92.50;101318.06;5098898;28;20157;-79
2023/01/14 02:50:39;;;;;;;;;;;;;;;7.32;92.48;101305.94;5098468;28;19915;-79
2023/01/14 02:53:08;;;;;;;;;;;;;;;7.31;92.34;101305.06;5098910;28;19916;-79
2023/01/14 02:55:35;;;;;;;;;;;;;;;7.32;92.70;101296.38;5098490;28;19991;-79
2023/01/14 02:58:03;;;;;;;;;;;;;;;7.28;92.35;101287.75;5098848;28;19920;-79
2023/01/14 03:00:48;;;;;;;;;;;;;;;7.29;92.47;101275.59;5098463;28;20074;-79
2023/01/14 03:03:16;;;;;;;;;;;;;;;7.28;92.18;101273.88;5098700;28;19912;-79
2023/01/14 03:06:17;;;;;;;;;;;;;;;7.27;92.32;101275.59;5096918;28;19908;-79
2023/01/14 03:08:51;;;;;;;;;;;;;;;7.26;92.16;101267.84;5035385;28;19932;-79
2023/01/14 03:11:16;;;;;;;;;;;;;;;7.26;92.23;101254.81;5084766;28;19958;-79
2023/01/14 03:13:50;;;;;;;;;;;;;;;7.25;92.26;101268.72;5096718;28;19920;-79
2023/01/14 03:16:21;;;;;;;;;;;;;;;7.24;92.63;101267.88;5098105;28;19975;-79
2023/01/14 03:19:00;;;;;;;;;;;;;;;7.25;92.54;101271.34;5098052;28;20245;-79
2023/01/14 03:21:32;;;;;;;;;;;;;;;7.18;90.97;101254.97;5098649;28;19947;-79
2023/01/14 03:24:01;;;;;;;;;;;;;;;7.16;91.20;101243.72;5098297;28;19916;-79
2023/01/14 03:26:28;;;;;;;;;;;;;;;7.16;92.02;101254.13;5096941;28;19923;-79
2023/01/14 03:28:55;;;;;;;;;;;;;;;7.17;92.51;101250.66;5096676;28;20183;-79
2023/01/14 03:31:25;;;;;;;;;;;;;;;7.16;92.80;101235.91;5096367;28;19948;-79
2023/01/14 03:34:02;;;;;;;;;;;;;;;7.16;92.85;101235.91;5097885;28;19916;-79
2023/01/14 03:36:29;;;;;;;;;;;;;;;7.16;92.87;101212.44;5097961;28;20216;-79
2023/01/14 03:38:57;;;;;;;;;;;;;;;7.16;93.16;101220.28;5096552;28;19975;-80
2023/01/14 03:44:10;;;;;;;;;;;;;;;7.16;93.12;101198.59;5096932;28;19923;-80
2023/01/14 03:46:35;;;;;;;;;;;;;;;7.16;93.18;101206.41;5097181;28;19920;-80
2023/01/14 03:49:00;;;;;;;;;;;;;;;7.16;93.54;101186.41;5098072;28;19991;-80
2023/01/14 03:51:41;;;;;;;;;;;;;;;7.16;93.40;101181.19;5097866;28;19919;-80
2023/01/14 03:54:18;;;;;;;;;;;;;;;7.17;93.34;101172.50;5097664;28;19969;-80
2023/01/14 03:57:01;;;;;;;;;;;;;;;7.17;93.69;101172.50;5097475;28;20211;-80
2023/01/14 03:59:32;;;;;;;;;;;;;;;7.17;93.80;101159.47;5096563;28;19916;-80
2023/01/14 04:01:59;;;;;;;;;;;;;;;7.18;93.82;101155.13;5096317;28;19908;-80
2023/01/14 04:04:25;;;;;;;;;;;;;;;7.18;94.03;101150.75;5097631;28;19920;-80
2023/01/14 04:06:50;;;;;;;;;;;;;;;7.19;93.94;101144.66;5097380;28;19947;-80
2023/01/14 04:09:16;;;;;;;;;;;;;;;7.20;94.02;101150.72;5097315;28;19924;-80
2023/01/14 04:11:41;;;;;;;;;;;;;;;7.20;94.11;101129.88;5097586;28;20001;-80
2023/01/14 04:16:51;;;;;;;;;;;;;;;7.21;94.08;101121.19;5096887;28;19974;-80
2023/01/14 04:19:17;;;;;;;;;;;;;;;7.20;94.35;101114.25;5078989;28;20219;-80
2023/01/14 04:21:42;;;;;;;;;;;;;;;7.21;94.21;101116.00;5097345;28;20232;-80
2023/01/14 04:24:07;;;;;;;;;;;;;;;7.22;94.56;101112.47;5097444;28;20077;-79
2023/01/14 04:26:33;;;;;;;;;;;;;;;7.21;94.55;101105.56;5096708;28;19947;-80
2023/01/14 04:28:58;;;;;;;;;;;;;;;7.22;94.48;101102.06;5101580;28;20200;-80
2023/01/14 04:31:23;;;;;;;;;;;;;;;7.22;94.55;101099.44;5101331;28;19912;-80
2023/01/14 04:33:49;;;;;;;;;;;;;;;7.22;94.47;101089.03;5099375;28;19947;-80
2023/01/14 04:36:14;;;;;;;;;;;;;;;7.22;94.54;101089.03;5081268;28;19912;-80
2023/01/14 04:38:39;;;;;;;;;;;;;;;7.21;94.47;101082.13;5081004;28;19923;-80
2023/01/14 04:41:05;;;;;;;;;;;;;;;7.21;94.33;101075.16;5081490;28;19987;-80
2023/01/14 04:43:30;;;;;;;;;;;;;;;7.22;94.43;101073.41;5081001;28;19922;-80
2023/01/14 04:45:56;;;;;;;;;;;;;;;7.23;94.67;101069.91;5080742;28;19920;-80
2023/01/14 04:48:22;;;;;;;;;;;;;;;7.23;94.80;101073.38;5079266;28;19928;-80
2023/01/14 04:50:50;;;;;;;;;;;;;;;7.24;94.88;101058.59;5080456;28;19924;-80
2023/01/14 04:53:17;;;;;;;;;;;;;;;7.24;94.97;101063.78;5080905;28;19912;-80
2023/01/14 04:55:46;;;;;;;;;;;;;;;7.23;94.96;101052.53;5080488;28;20223;-80
2023/01/14 04:58:13;;;;;;;;;;;;;;;7.24;95.10;101061.19;5079592;28;19909;-80
2023/01/14 05:00:39;;;;;;;;;;;;;;;7.24;95.20;101069.00;5080283;28;20156;-80
2023/01/14 05:03:05;;;;;;;;;;;;;;;7.24;95.36;101053.38;5080491;28;19966;-80
2023/01/14 05:05:30;;;;;;;;;;;;;;;7.24;95.28;101053.38;5080478;28;19908;-80
2023/01/14 05:07:56;;;;;;;;;;;;;;;7.26;95.50;101041.19;5080343;28;20074;-80
2023/01/14 05:10:22;;;;;;;;;;;;;;;7.26;95.43;101041.19;5080545;28;19916;-80
2023/01/14 05:12:56;;;;;;;;;;;;;;;7.27;95.38;101035.09;5078988;28;20174;-80
2023/01/14 05:15:25;;;;;;;;;;;;;;;7.26;95.23;101020.34;5080269;28;20170;-80
2023/01/14 05:17:50;;;;;;;;;;;;;;;7.27;95.45;101017.69;5079974;28;20192;-80
2023/01/14 05:20:16;;;;;;;;;;;;;;;7.27;95.40;100993.41;5080384;28;19958;-80
2023/01/14 05:22:41;;;;;;;;;;;;;;;7.27;95.70;100996.84;5079956;28;20196;-80
2023/01/14 05:25:06;;;;;;;;;;;;;;;7.27;95.77;100986.44;5079084;28;19934;-80
2023/01/14 05:27:32;;;;;;;;;;;;;;;7.28;95.77;100995.13;5080050;28;19950;-80
2023/01/14 05:29:58;;;;;;;;;;;;;;;7.29;95.91;100991.59;5080217;28;20112;-80
2023/01/14 05:32:23;;;;;;;;;;;;;;;7.29;96.03;100984.66;5078237;28;19927;-80
2023/01/14 05:34:48;;;;;;;;;;;;;;;7.30;95.79;100985.50;5079993;28;19963;-80
2023/01/14 05:37:14;;;;;;;;;;;;;;;7.29;96.17;100974.25;5080125;28;20151;-80
2023/01/14 05:39:39;;;;;;;;;;;;;;;7.30;96.05;100975.09;5079502;28;20230;-80
2023/01/14 05:47:32;;;;;;;;;;;;;;;7.30;95.97;100951.66;5078757;28;19980;-80
2023/01/14 05:49:57;;;;;;;;;;;;;;;7.30;95.95;100936.88;5079888;28;20127;-80
2023/01/14 05:52:22;;;;;;;;;;;;;;;7.30;96.20;100931.66;5079635;28;20017;-80
2023/01/14 05:54:47;;;;;;;;;;;;;;;7.32;96.23;100926.41;5079341;28;19931;-80
2023/01/14 05:57:14;;;;;;;;;;;;;;;7.33;96.11;100924.66;5079813;28;19983;-80
2023/01/14 05:59:39;;;;;;;;;;;;;;;7.32;96.20;100912.53;5079113;28;19913;-80
2023/01/14 06:07:32;;;;;;;;;;;;;;;7.32;96.12;100894.31;5078919;28;19928;-80
2023/01/14 06:09:57;;;;;;;;;;;;;;;7.32;96.04;100891.69;5079513;28;19909;-80
2023/01/14 06:15:20;;;;;;;;;;;;;;;7.32;96.35;100863.03;5066661;28;20239;-79
2023/01/14 06:17:56;;;;;;;;;;;;;;;7.32;96.19;100856.06;5078738;28;19978;-80
2023/01/14 06:20:21;;;;;;;;;;;;;;;7.33;96.20;100852.59;5079067;28;20228;-80
2023/01/14 06:22:47;;;;;;;;;;;;;;;7.33;96.45;100839.56;5077595;28;19952;-80
2023/01/14 06:25:12;;;;;;;;;;;;;;;7.34;96.32;100832.59;5079324;28;19958;-80
2023/01/14 06:27:37;;;;;;;;;;;;;;;7.32;96.64;100822.19;5078871;28;20500;-80
2023/01/14 06:30:03;;;;;;;;;;;;;;;7.34;96.75;100827.38;5078947;28;20208;-80
2023/01/14 06:32:28;;;;;;;;;;;;;;;7.33;96.60;100816.09;5089162;28;19965;-80
2023/01/14 06:34:53;;;;;;;;;;;;;;;7.34;96.86;100815.19;5091555;28;19929;-80
2023/01/14 06:37:18;;;;;;;;;;;;;;;7.34;96.69;100802.16;5095219;28;19912;-80
2023/01/14 06:39:44;;;;;;;;;;;;;;;7.35;96.88;100790.88;5084908;28;20188;-80
2023/01/14 06:42:09;;;;;;;;;;;;;;;7.35;96.86;100783.03;5097504;28;19973;-80
2023/01/14 06:44:34;;;;;;;;;;;;;;;7.35;96.87;100769.13;5098332;28;19916;-80
2023/01/14 06:46:59;;;;;;;;;;;;;;;7.34;97.04;100760.47;5097063;28;19912;-80
2023/01/14 06:49:25;;;;;;;;;;;;;;;7.34;96.88;100755.28;5089387;28;19924;-80
2023/01/14 06:51:50;;;;;;;;;;;;;;;7.34;96.87;100752.66;5085364;28;19918;-80
2023/01/14 06:54:15;;;;;;;;;;;;;;;7.35;96.86;100750.91;5097592;28;19966;-80
2023/01/14 06:56:41;;;;;;;;;;;;;;;7.34;96.69;100746.63;5097885;28;19912;-80
2023/01/14 06:59:07;;;;;;;;;;;;;;;7.33;96.48;100724.91;5089748;28;20262;-80
2023/01/14 07:01:32;;;;;;;;;;;;;;;7.35;96.77;100722.25;5091964;28;19961;-80
2023/01/14 07:03:57;;;;;;;;;;;;;;;7.34;96.88;100710.97;5096919;28;20219;-79
2023/01/14 07:06:23;;;;;;;;;;;;;;;7.34;96.76;100710.97;5095151;28;19924;-79
2023/01/14 07:08:48;;;;;;;;;;;;;;;7.34;96.86;100704.94;5087505;28;20190;-80
2023/01/14 07:11:13;;;;;;;;;;;;;;;7.34;96.83;100695.34;5098377;28;20153;-80
2023/01/14 07:13:38;;;;;;;;;;;;;;;7.34;97.02;100695.34;5097581;28;20154;-80
2023/01/14 07:16:04;;;;;;;;;;;;;;;7.34;97.00;100691.91;5097889;28;19924;-80
2023/01/14 07:18:29;;;;;;;;;;;;;;;7.34;96.89;100658.88;5098272;28;19916;-80
2023/01/14 07:20:55;;;;;;;;;;;;;;;7.35;97.01;100670.16;5098131;28;19991;-80
2023/01/14 07:23:20;;;;;;;;;;;;;;;7.35;97.02;100650.19;5091127;28;20147;-80
2023/01/14 07:25:45;;;;;;;;;;;;;;;7.34;97.10;100643.25;5095630;28;19963;-80
2023/01/14 07:28:11;;;;;;;;;;;;;;;7.34;97.07;100632.81;5097646;28;19943;-80
2023/01/14 07:30:36;;;;;;;;;;;;;;;7.33;97.24;100623.31;5097680;28;20200;-80
2023/01/14 07:33:01;;;;;;;;;;;;;;;7.33;97.41;100615.50;5096514;28;20231;-80
2023/01/14 07:35:27;;;;;;;;;;;;;;;7.33;97.47;100599.88;5097768;28;20234;-80
2023/01/14 07:37:53;;;;;;;;;;;;;;;7.33;97.14;100597.28;5088043;28;19931;-80
2023/01/14 07:40:20;;;;;;;;;;;;;;;7.32;97.41;100569.50;5097208;28;20231;-80
2023/01/14 07:42:46;;;;;;;;;;;;;;;7.32;97.43;100553.88;5097702;28;20131;-80
2023/01/14 07:45:11;;;;;;;;;;;;;;;7.32;97.53;100553.88;5091044;28;19951;-80
2023/01/14 07:47:36;;;;;;;;;;;;;;;7.32;97.92;100564.28;5093521;28;19947;-80
2023/01/14 07:50:02;;;;;;;;;;;;;;;7.30;98.12;100540.06;5097566;28;19918;-80
2023/01/14 07:52:27;;;;;;;;;;;;;;;7.32;98.19;100534.78;5095919;28;19923;-80
2023/01/14 07:54:53;;;;;;;;;;;;;;;7.31;98.03;100536.53;5097148;28;19915;-80
2023/01/14 07:57:18;;;;;;;;;;;;;;;7.30;98.14;100535.69;5091691;28;19999;-80
2023/01/14 07:59:44;;;;;;;;;;;;;;;7.31;98.13;100523.50;5095111;28;20119;-80
2023/01/14 08:02:10;;;;;;;;;;;;;;;7.32;98.39;100511.34;5097057;28;19908;-80
2023/01/14 08:04:35;;;;;;;;;;;;;;;7.31;98.52;100502.66;5094095;28;20123;-80
2023/01/14 08:07:01;;;;;;;;;;;;;;;7.31;98.66;100500.06;5090846;28;19997;-80
2023/01/14 08:09:26;;;;;;;;;;;;;;;7.32;98.64;100501.78;5094035;28;19928;-80
2023/01/14 08:11:52;;;;;;;;;;;;;;;7.32;98.83;100488.75;5096797;28;20180;-80
2023/01/14 08:14:17;;;;;;;;;;;;;;;7.32;98.88;100467.06;5088345;28;19928;-80
2023/01/14 08:16:43;;;;;;;;;;;;;;;7.32;99.07;100464.47;5092764;28;19991;-80
2023/01/14 08:19:09;;;;;;;;;;;;;;;7.32;99.25;100457.50;5097243;28;19920;-80
2023/01/14 08:21:35;;;;;;;;;;;;;;;7.32;99.47;100454.88;5091098;28;20142;-80
2023/01/14 08:24:00;;;;;;;;;;;;;;;7.32;99.59;100452.28;5091490;28;19924;-80
2023/01/14 08:26:25;;;;;;;;;;;;;;;7.32;99.65;100441.00;5091217;28;20200;-80
2023/01/14 08:28:50;;;;;;;;;;;;;;;7.32;99.45;100441.84;5085996;28;19995;-80
2023/01/14 08:31:16;;;;;;;;;;;;;;;7.35;99.57;100431.34;5094197;28;19969;-79
2023/01/14 08:33:42;;;;;;;;;;;;;;;7.35;99.74;100414.84;5088472;28;20383;-80
2023/01/14 08:36:09;;;;;;;;;;;;;;;7.35;100.00;100400.09;5087693;28;20138;-80
2023/01/14 08:38:35;;;;;;;;;;;;;;;7.36;100.00;100400.94;5089395;28;19916;-80
2023/01/14 08:41:05;;;;;;;;;;;;;;;7.36;100.00;100391.34;5087200;28;19925;-80
2023/01/14 08:43:30;;;;;;;;;;;;;;;7.35;100.00;100387.06;5088594;28;19943;-80
2023/01/14 08:45:55;;;;;;;;;;;;;;;7.36;100.00;100367.06;5088848;28;19979;-80
2023/01/14 08:48:20;;;;;;;;;;;;;;;7.36;100.00;100360.09;5085680;28;19931;-80
2023/01/14 08:50:46;;;;;;;;;;;;;;;7.37;100.00;100345.28;5089045;28;19918;-80
2023/01/14 08:53:11;;;;;;;;;;;;;;;7.38;100.00;100331.38;5089029;28;20127;-80
2023/01/14 08:55:36;;;;;;;;;;;;;;;7.38;100.00;100305.31;5086861;28;20258;-80
2023/01/14 08:58:04;;;;;;;;;;;;;;;7.39;100.00;100304.44;5087102;28;20247;-80
2023/01/14 09:00:30;;;;;;;;;;;;;;;7.40;100.00;100320.00;5089096;28;20196;-80
2023/01/14 09:02:55;;;;;;;;;;;;;;;7.41;100.00;100300.03;5096241;28;19995;-79
2023/01/14 09:05:20;;;;;;;;;;;;;;;7.42;100.00;100296.50;5097148;28;19920;-80
2023/01/14 09:18:41;;;;;;;;;;;;;;;7.47;100.00;100263.31;5086561;28;19930;-80
2023/01/14 09:21:07;;;;;;;;;;;;;;;7.48;100.00;100273.69;5091436;28;19920;-80
2023/01/14 09:23:32;;;;;;;;;;;;;;;7.49;100.00;100275.38;5087374;28;20215;-80
2023/01/14 09:25:57;;;;;;;;;;;;;;;7.50;100.00;100264.03;5085636;28;19920;-80
2023/01/14 09:28:23;;;;;;;;;;;;;;;7.51;100.00;100251.84;5087695;28;19931;-80
2023/01/14 09:30:48;;;;;;;;;;;;;;;7.53;100.00;100237.03;5087913;28;19920;-80
2023/01/14 09:33:13;;;;;;;;;;;;;;;7.54;100.00;100232.66;5091160;28;19995;-80
2023/01/14 09:35:39;;;;;;;;;;;;;;;7.55;100.00;100231.75;5088717;28;19927;-80
2023/01/14 09:38:04;;;;;;;;;;;;;;;7.56;100.00;100220.44;5072629;28;19925;-79
2023/01/14 09:40:29;;;;;;;;;;;;;;;7.57;100.00;100201.28;5088734;28;19923;-80
2023/01/14 09:42:55;;;;;;;;;;;;;;;7.57;100.00;100198.69;5097781;28;19920;-80
2023/01/14 09:45:27;;;;;;;;;;;;;;;7.58;100.00;100185.56;5100565;28;19920;-80
2023/01/14 09:47:54;;;;;;;;;;;;;;;7.60;100.00;100175.09;5099896;28;19916;-80
2023/01/14 09:50:34;;;;;;;;;;;;;;;7.60;100.00;100173.31;5097051;28;19916;-80
2023/01/14 09:53:01;;;;;;;;;;;;;;;7.61;100.00;100175.03;5084242;28;20302;-79
2023/01/14 09:55:26;;;;;;;;;;;;;;;7.63;100.00;100168.00;5093400;28;19919;-79
2023/01/14 09:58:02;;;;;;;;;;;;;;;7.64;100.00;100166.25;5099342;28;19916;-79
2023/01/14 10:00:30;;;;;;;;;;;;;;;7.64;100.00;100141.06;5099904;28;19954;-79
2023/01/14 10:03:01;;;;;;;;;;;;;;;7.66;100.00;100143.59;5099210;28;19920;-79
2023/01/14 10:05:28;;;;;;;;;;;;;;;7.67;100.00;100124.44;5099600;28;19982;-79
2023/01/14 10:07:55;;;;;;;;;;;;;;;7.68;100.00;100120.94;5099154;28;19927;-80
2023/01/14 10:10:38;;;;;;;;;;;;;;;7.70;100.00;100116.50;5098162;28;20011;-80
2023/01/14 10:13:09;;;;;;;;;;;;;;;7.71;100.00;100112.97;5099642;28;20140;-79
2023/01/14 10:15:36;;;;;;;;;;;;;;;7.73;100.00;100069.47;5097595;28;20015;-79
2023/01/14 10:18:07;;;;;;;;;;;;;;;7.75;100.00;100082.41;5097863;28;19908;-80
2023/01/14 10:20:46;;;;;;;;;;;;;;;7.76;100.00;100071.09;5099400;28;19961;-79
2023/01/14 10:23:13;;;;;;;;;;;;;;;7.77;100.00;100071.03;5099120;28;19935;-79
2023/01/14 10:25:42;;;;;;;;;;;;;;;7.78;100.00;100051.00;5096841;28;19916;-79
2023/01/14 10:28:10;;;;;;;;;;;;;;;7.79;100.00;100056.16;5098692;28;19916;-79
2023/01/14 10:30:36;;;;;;;;;;;;;;;7.81;100.00;100054.34;5094528;28;19916;-79
2023/01/14 10:33:03;;;;;;;;;;;;;;;7.82;100.00;100050.84;5088957;28;19918;-79
2023/01/14 10:35:32;;;;;;;;;;;;;;;7.83;100.00;100021.22;5096681;28;19967;-79
2023/01/14 10:37:58;;;;;;;;;;;;;;;7.84;100.00;100014.25;5099058;28;19916;-79
2023/01/14 10:40:24;;;;;;;;;;;;;;;7.86;100.00;100012.44;5098021;28;19931;-79
2023/01/14 10:42:51;;;;;;;;;;;;;;;7.86;100.00;99992.44;5097934;28;20107;-79
2023/01/14 10:45:16;;;;;;;;;;;;;;;7.88;100.00;99998.44;5094167;28;19966;-79
2023/01/14 10:47:42;;;;;;;;;;;;;;;7.90;100.00;99982.72;5093717;28;20211;-79
2023/01/14 10:50:18;;;;;;;;;;;;;;;7.91;100.00;99971.38;5098874;28;20263;-79
2023/01/14 10:52:44;;;;;;;;;;;;;;;7.94;100.00;99959.97;5098383;28;19935;-79
2023/01/14 10:55:16;;;;;;;;;;;;;;;7.96;100.00;99963.34;5096212;28;20025;-80
2023/01/14 10:57:57;;;;;;;;;;;;;;;7.97;100.00;99955.47;5093860;28;19914;-79
2023/01/14 11:00:25;;;;;;;;;;;;;;;8.00;100.00;99951.88;5098300;28;20039;-79
2023/01/14 11:02:51;;;;;;;;;;;;;;;8.01;100.00;99958.78;5098011;28;20211;-79
2023/01/14 11:05:26;;;;;;;;;;;;;;;8.03;100.00;99949.97;5098753;28;19931;-79
2023/01/14 11:07:52;;;;;;;;;;;;;;;8.03;100.00;99923.91;5097848;28;19932;-79
2023/01/14 11:10:19;;;;;;;;;;;;;;;8.06;100.00;99933.38;5096694;28;19920;-79
2023/01/14 11:12:44;;;;;;;;;;;;;;;8.06;100.00;99917.72;5095785;28;19979;-79
2023/01/14 11:15:28;;;;;;;;;;;;;;;8.09;100.00;99920.16;5088787;28;20112;-79
2023/01/14 11:17:54;;;;;;;;;;;;;;;8.10;100.00;99903.63;5087679;28;20086;-79
2023/01/14 11:20:21;;;;;;;;;;;;;;;8.13;100.00;99892.19;5089162;28;19924;-79
2023/01/14 11:22:56;;;;;;;;;;;;;;;8.13;100.00;99895.66;5088480;28;20219;-79
2023/01/14 11:25:22;;;;;;;;;;;;;;;8.14;100.00;99899.94;5088253;28;19920;-79
2023/01/14 11:27:48;;;;;;;;;;;;;;;8.14;100.00;99884.28;5090069;28;20002;-79
2023/01/14 11:30:16;;;;;;;;;;;;;;;8.15;100.00;99886.00;5091218;28;19923;-79
2023/01/14 11:32:45;;;;;;;;;;;;;;;8.18;100.00;99880.63;5087474;28;19958;-79
2023/01/14 11:35:22;;;;;;;;;;;;;;;8.20;100.00;99876.19;5077923;28;19986;-79
2023/01/14 11:37:48;;;;;;;;;;;;;;;8.22;100.00;99847.41;5077444;28;19924;-79
2023/01/14 11:40:19;;;;;;;;;;;;;;;8.22;100.00;99845.69;5092691;28;20174;-79
2023/01/14 11:42:46;;;;;;;;;;;;;;;8.24;100.00;99862.09;5077073;28;20221;-79
2023/01/14 11:45:11;;;;;;;;;;;;;;;8.26;100.00;99835.94;5077437;28;20211;-79
2023/01/14 11:47:52;;;;;;;;;;;;;;;8.27;100.00;99832.41;5075887;28;19925;-79
2023/01/14 11:50:28;;;;;;;;;;;;;;;8.28;100.00;99826.28;5076389;28;19970;-79
2023/01/14 11:52:58;;;;;;;;;;;;;;;8.30;100.00;99821.00;5075786;28;19916;-79
2023/01/14 11:55:23;;;;;;;;;;;;;;;8.31;100.00;99835.72;5076145;28;19966;-79
2023/01/14 11:57:49;;;;;;;;;;;;;;;8.34;100.00;99822.53;5076307;28;20455;-79
2023/01/14 12:00:14;;;;;;;;;;;;;;;8.34;100.00;99802.50;5080325;28;19923;-79
2023/01/14 12:02:43;;;;;;;;;;;;;;;8.36;100.00;99799.81;5088477;28;19924;-79
2023/01/14 12:05:14;;;;;;;;;;;;;;;8.36;100.00;99785.00;5091489;28;19912;-79
2023/01/14 12:07:54;;;;;;;;;;;;;;;8.38;100.00;99787.53;5095275;28;19916;-79
2023/01/14 12:10:31;;;;;;;;;;;;;;;8.40;100.00;99777.88;5083900;28;19924;-79
2023/01/14 12:18:39;;;;;;;;;;;;;;;8.45;100.00;99771.53;5085305;28;20446;-79
2023/01/14 12:21:05;;;;;;;;;;;;;;;8.47;100.00;99765.41;5092151;28;19920;-79
2023/01/14 12:23:33;;;;;;;;;;;;;;;8.49;100.00;99753.13;5094845;28;20207;-79
2023/01/14 12:26:01;;;;;;;;;;;;;;;8.51;100.00;99735.63;5093207;28;19935;-79
2023/01/14 12:28:30;;;;;;;;;;;;;;;8.53;100.00;99736.41;5093828;28;20219;-79
2023/01/14 12:30:55;;;;;;;;;;;;;;;8.55;100.00;99732.81;5091410;28;19917;-79
2023/01/14 12:33:20;;;;;;;;;;;;;;;8.58;100.00;99737.03;5091928;28;20161;-79
2023/01/14 12:35:51;;;;;;;;;;;;;;;8.59;100.00;99707.41;5091644;28;20260;-79
2023/01/14 12:46:37;;;;;;;;;;;;;;;8.65;100.00;99692.25;5096435;28;19976;-79
2023/01/14 12:49:04;;;;;;;;;;;;;;;8.68;100.00;99698.25;5099998;28;20234;-79
2023/01/14 12:51:31;;;;;;;;;;;;;;;8.69;100.00;99676.44;5100474;28;19916;-79
2023/01/14 12:53:58;;;;;;;;;;;;;;;8.71;100.00;99672.84;5100518;28;20262;-79
2023/01/14 12:56:33;;;;;;;;;;;;;;;8.72;100.00;99681.53;5100966;28;19926;-79
2023/01/14 12:59:02;;;;;;;;;;;;;;;8.73;100.00;99673.63;5100988;28;19923;-79
2023/01/14 13:01:47;;;;;;;;;;;;;;;8.75;100.00;99666.56;5098894;28;19927;-79
2023/01/14 13:04:18;;;;;;;;;;;;;;;8.76;100.00;99663.00;5099077;28;19920;-79
2023/01/14 13:06:45;;;;;;;;;;;;;;;8.79;100.00;99659.41;5097686;28;19935;-79
2023/01/14 13:09:19;;;;;;;;;;;;;;;8.80;100.00;99658.47;5099660;28;19923;-79
2023/01/14 13:11:45;;;;;;;;;;;;;;;8.81;100.00;99653.16;5099248;28;19916;-79
2023/01/14 13:14:34;;;;;;;;;;;;;;;8.84;100.00;99647.78;5099812;28;19915;-79
2023/01/14 13:17:02;;;;;;;;;;;;;;;8.86;100.00;99647.72;5095084;28;19942;-79
2023/01/14 13:19:36;;;;;;;;;;;;;;;8.88;100.00;99632.81;5099103;28;20150;-79
2023/01/14 13:22:02;;;;;;;;;;;;;;;8.91;100.00;99629.19;5100788;28;19979;-79
2023/01/14 13:24:37;;;;;;;;;;;;;;;8.92;100.00;99634.31;5099019;28;19923;-79
2023/01/14 13:27:30;;;;;;;;;;;;;;;8.93;100.00;99616.88;5099273;28;20010;-79
2023/01/14 13:30:14;;;;;;;;;;;;;;;8.95;100.00;99615.03;5100895;28;20213;-79
2023/01/14 13:32:58;;;;;;;;;;;;;;;8.97;100.00;99614.03;5085815;28;19909;-79
2023/01/14 13:35:23;;;;;;;;;;;;;;;8.98;100.00;99609.66;5083042;28;19947;-79
2023/01/14 13:37:49;;;;;;;;;;;;;;;9.00;100.00;99607.81;5089608;28;20279;-79